Time;durP1;ratioP1;P1;durP2;ratioP2;P2;SDS_P1;SDS_P2;PMS_P1;PMS_P2;Temp;Humidity;BMP_temperature;BMP_pressure;BME280_temperature;BME280_humidity;BME280_pressure;Samples;Min_cycle;Max_cycle;Signal;HPM_P1;HPM_P2
2022/03/30 00:01:49;;;;;;;7.47;2.08;;;8.50;55.30;;;;;;2316884;58;22179;-77
2022/03/30 00:04:16;;;;;;;8.85;2.03;;;8.50;55.40;;;;;;2556957;54;21053;-76
2022/03/30 00:06:43;;;;;;;12.98;2.30;;;8.50;55.40;;;;;;2316114;58;21073;-74
2022/03/30 00:09:11;;;;;;;10.85;2.87;;;8.50;55.50;;;;;;2316574;58;21096;-77
2022/03/30 00:11:38;;;;;;;8.27;2.60;;;8.40;55.50;;;;;;2316157;58;21056;-76
2022/03/30 00:14:05;;;;;;;12.50;2.10;;;8.40;55.70;;;;;;2316738;58;21053;-77
2022/03/30 00:16:34;;;;;;;8.65;2.10;;;8.40;55.70;;;;;;2316064;58;21192;-77
2022/03/30 00:19:01;;;;;;;15.40;3.28;;;8.40;55.90;;;;;;2317016;58;21690;-77
2022/03/30 00:21:29;;;;;;;7.78;2.72;;;8.40;55.90;;;;;;2316844;58;21052;-76
2022/03/30 00:23:56;;;;;;;6.00;1.90;;;8.40;56.00;;;;;;2315848;58;21164;-73
2022/03/30 00:26:23;;;;;;;9.73;2.08;;;8.40;56.10;;;;;;2316404;58;21108;-77
2022/03/30 00:28:51;;;;;;;5.18;1.85;;;8.40;56.10;;;;;;2316569;58;21069;-75
2022/03/30 00:31:19;;;;;;;11.38;2.50;;;8.40;56.10;;;;;;2315741;58;21052;-76
2022/03/30 00:33:46;;;;;;;9.55;2.67;;;8.40;56.10;;;;;;2317095;58;21044;-77
2022/03/30 00:36:14;;;;;;;9.25;2.35;;;8.40;56.10;;;;;;2316500;58;21072;-76
2022/03/30 00:38:41;;;;;;;5.45;2.20;;;8.40;56.20;;;;;;2316661;58;21148;-77
2022/03/30 00:41:08;;;;;;;8.50;2.10;;;8.40;56.20;;;;;;2557293;54;21155;-76
2022/03/30 00:43:36;;;;;;;8.05;2.65;;;8.40;56.10;;;;;;2316606;58;21072;-74
2022/03/30 00:46:03;;;;;;;16.20;2.72;;;8.40;56.20;;;;;;2315917;58;21077;-76
2022/03/30 00:48:31;;;;;;;6.70;2.42;;;8.40;56.20;;;;;;2316236;58;21064;-77
2022/03/30 00:50:58;;;;;;;7.53;2.67;;;8.40;56.40;;;;;;2316724;58;21076;-74
2022/03/30 00:53:25;;;;;;;6.68;1.92;;;8.40;56.30;;;;;;2316726;58;21040;-77
2022/03/30 00:55:53;;;;;;;16.12;3.37;;;8.40;56.40;;;;;;2315971;58;21543;-76
2022/03/30 00:58:22;;;;;;;7.55;2.08;;;8.30;56.50;;;;;;2316890;58;21065;-76
2022/03/30 01:00:50;;;;;;;6.80;1.90;;;8.30;56.60;;;;;;2316424;58;21048;-76
2022/03/30 01:03:17;;;;;;;5.07;2.22;;;8.30;56.50;;;;;;2316332;58;21108;-75
2022/03/30 01:05:44;;;;;;;5.07;2.53;;;8.30;56.60;;;;;;2315599;58;21064;-77
2022/03/30 01:08:12;;;;;;;7.97;2.12;;;8.30;56.70;;;;;;2316417;58;21048;-75
2022/03/30 01:10:40;;;;;;;5.78;1.87;;;8.30;56.80;;;;;;2316479;58;21052;-76
2022/03/30 01:13:07;;;;;;;7.45;2.40;;;8.30;57.00;;;;;;2316756;58;22121;-76
2022/03/30 01:15:35;;;;;;;8.43;2.17;;;8.20;57.00;;;;;;2556741;54;21127;-76
2022/03/30 01:18:02;;;;;;;7.25;2.30;;;8.20;57.10;;;;;;2316027;58;21069;-76
2022/03/30 01:20:31;;;;;;;11.77;2.40;;;8.20;57.20;;;;;;2316932;58;21104;-77
2022/03/30 01:22:58;;;;;;;7.15;2.17;;;8.20;57.30;;;;;;2315583;58;21131;-76
2022/03/30 01:25:25;;;;;;;7.45;2.70;;;8.20;57.40;;;;;;2316020;58;21131;-77
2022/03/30 01:27:53;;;;;;;6.95;2.15;;;8.20;57.50;;;;;;2316690;58;21061;-76
2022/03/30 01:33:07;;;;;;;5.45;2.17;;;8.20;57.50;;;;;;2316324;58;21000;-76
2022/03/30 01:35:36;;;;;;;10.10;2.85;;;8.20;57.50;;;;;;2315499;58;21072;-74
2022/03/30 01:38:04;;;;;;;8.82;3.10;;;8.20;57.50;;;;;;2556891;54;21084;-74
2022/03/30 01:40:31;;;;;;;9.27;2.20;;;8.20;57.60;;;;;;2557240;54;21072;-75
2022/03/30 01:42:59;;;;;;;5.35;2.30;;;8.20;57.50;;;;;;2557013;54;21582;-76
2022/03/30 01:45:26;;;;;;;6.85;2.08;;;8.20;57.50;;;;;;2459011;54;68568;-79
2022/03/30 01:47:57;;;;;;;8.85;2.58;;;8.20;57.60;;;;;;2277773;59;21561;-79
2022/03/30 01:50:25;;;;;;;7.40;2.03;;;8.20;57.70;;;;;;2278392;59;21041;-78
2022/03/30 01:52:53;;;;;;;9.63;2.20;;;8.20;57.80;;;;;;2278673;59;21109;-78
2022/03/30 01:55:20;;;;;;;11.00;3.30;;;8.20;57.90;;;;;;2298713;58;21111;-80
2022/03/30 01:57:48;;;;;;;9.15;2.55;;;8.20;58.10;;;;;;2304652;58;21048;-77
2022/03/30 02:00:19;;;;;;;9.13;2.53;;;8.20;58.00;;;;;;2542268;54;21532;-78
2022/03/30 02:02:46;;;;;;;6.05;2.37;;;8.20;58.10;;;;;;2304713;58;21108;-80
2022/03/30 02:05:16;;;;;;;10.00;2.33;;;8.20;58.00;;;;;;2304481;58;22150;-81
2022/03/30 02:07:43;;;;;;;4.68;1.90;;;8.20;58.00;;;;;;2542342;54;21107;-80
2022/03/30 02:10:11;;;;;;;5.45;2.45;;;8.20;57.90;;;;;;2304791;58;21576;-79
2022/03/30 02:12:39;;;;;;;4.90;2.20;;;8.30;58.00;;;;;;2542704;54;21575;-78
2022/03/30 02:15:09;;;;;;;7.55;1.87;;;8.20;57.90;;;;;;2542427;53;21131;-79
2022/03/30 02:17:37;;;;;;;12.77;2.42;;;8.30;57.90;;;;;;2542829;54;21175;-79
2022/03/30 02:20:06;;;;;;;12.02;2.22;;;8.30;58.00;;;;;;2304482;58;21102;-79
2022/03/30 02:22:33;;;;;;;9.10;2.95;;;8.30;58.00;;;;;;2304695;58;21115;-79
2022/03/30 02:25:01;;;;;;;7.37;2.70;;;8.30;58.00;;;;;;2304526;58;21211;-78
2022/03/30 02:27:28;;;;;;;8.30;2.40;;;8.30;58.60;;;;;;2304535;58;21298;-79
2022/03/30 02:29:55;;;;;;;9.15;2.62;;;8.30;57.90;;;;;;2305090;58;21304;-78
2022/03/30 02:32:23;;;;;;;6.05;2.22;;;8.30;58.00;;;;;;2304756;58;21103;-79
2022/03/30 02:34:51;;;;;;;5.82;2.00;;;8.30;57.90;;;;;;2304646;58;21151;-77
2022/03/30 02:37:18;;;;;;;7.70;2.37;;;8.30;58.10;;;;;;2303731;58;21071;-78
2022/03/30 02:39:46;;;;;;;14.13;1.95;;;8.30;58.00;;;;;;2304725;58;21044;-78
2022/03/30 02:42:14;;;;;;;11.32;2.85;;;8.30;58.10;;;;;;2304868;58;21114;-80
2022/03/30 02:44:41;;;;;;;11.65;3.12;;;8.30;58.10;;;;;;2304629;58;21603;-80
2022/03/30 02:47:09;;;;;;;9.25;2.60;;;8.30;58.00;;;;;;2304882;58;21048;-78
2022/03/30 02:49:36;;;;;;;7.12;2.20;;;8.30;57.90;;;;;;2304821;58;21039;-79
2022/03/30 02:52:05;;;;;;;6.40;2.40;;;8.30;57.90;;;;;;2304586;58;21991;-79
2022/03/30 02:54:32;;;;;;;9.90;2.37;;;8.30;58.00;;;;;;2304304;58;21048;-79
2022/03/30 02:56:59;;;;;;;7.10;2.85;;;8.30;58.10;;;;;;2542263;54;21056;-79
2022/03/30 02:59:27;;;;;;;7.72;2.08;;;8.30;58.30;;;;;;2304850;58;21108;-78
2022/03/30 03:01:54;;;;;;;7.80;2.10;;;8.20;58.40;;;;;;2542794;54;21036;-78
2022/03/30 03:04:22;;;;;;;6.70;1.95;;;8.20;58.50;;;;;;2542711;54;21056;-79
2022/03/30 03:06:49;;;;;;;9.00;2.22;;;8.20;59.30;;;;;;2304219;58;21651;-79
2022/03/30 03:09:17;;;;;;;9.18;2.70;;;8.20;58.80;;;;;;2542904;54;21814;-78
2022/03/30 03:11:44;;;;;;;9.25;2.30;;;8.20;59.40;;;;;;2304569;58;21032;-78
2022/03/30 03:14:11;;;;;;;10.57;2.40;;;8.20;59.00;;;;;;2304674;58;21059;-79
2022/03/30 03:16:38;;;;;;;5.62;2.00;;;8.20;59.10;;;;;;2542390;54;21032;-77
2022/03/30 03:19:05;;;;;;;8.82;2.00;;;8.10;59.20;;;;;;2542597;54;21306;-78
2022/03/30 03:21:33;;;;;;;7.10;2.10;;;8.20;59.60;;;;;;2304572;58;21164;-78
2022/03/30 03:24:00;;;;;;;4.47;1.98;;;8.10;59.70;;;;;;2304404;58;21096;-78
2022/03/30 03:26:27;;;;;;;5.82;2.15;;;8.10;59.90;;;;;;2542340;54;21199;-78
2022/03/30 03:28:54;;;;;;;13.05;3.28;;;8.10;60.10;;;;;;2304789;58;21047;-78
2022/03/30 03:31:22;;;;;;;7.87;2.37;;;8.10;60.20;;;;;;2304521;58;21048;-78
2022/03/30 03:33:49;;;;;;;8.70;2.53;;;8.10;60.50;;;;;;2304722;58;21052;-78
2022/03/30 03:36:18;;;;;;;5.40;2.25;;;8.10;60.40;;;;;;2304262;58;21124;-79
2022/03/30 03:38:45;;;;;;;11.12;2.45;;;8.10;60.40;;;;;;2542683;54;21162;-77
2022/03/30 03:41:12;;;;;;;8.85;2.37;;;8.10;60.60;;;;;;2541827;54;21338;-79
2022/03/30 03:43:40;;;;;;;8.65;3.03;;;8.10;60.80;;;;;;2542216;54;21060;-78
2022/03/30 03:46:08;;;;;;;4.90;2.10;;;8.10;61.00;;;;;;2542071;54;21100;-77
2022/03/30 03:48:35;;;;;;;6.10;2.03;;;8.00;61.10;;;;;;2542386;54;21115;-79
2022/03/30 03:51:02;;;;;;;9.40;2.30;;;8.00;61.20;;;;;;2541912;54;21072;-75
2022/03/30 03:53:30;;;;;;;7.75;2.08;;;8.00;61.20;;;;;;2304180;58;21124;-78
2022/03/30 03:55:57;;;;;;;9.02;2.62;;;8.00;61.30;;;;;;2304291;58;21028;-75
2022/03/30 03:58:24;;;;;;;9.23;2.20;;;8.10;61.50;;;;;;2541281;54;21120;-76
2022/03/30 04:00:51;;;;;;;8.25;2.20;;;8.10;61.60;;;;;;2304254;58;21029;-76
2022/03/30 04:03:18;;;;;;;8.02;2.83;;;8.00;61.60;;;;;;2542271;54;21567;-76
2022/03/30 04:05:45;;;;;;;7.60;2.00;;;8.10;61.80;;;;;;2303367;58;21036;-78
2022/03/30 04:08:13;;;;;;;9.45;3.58;;;8.10;62.00;;;;;;2304318;58;21113;-78
2022/03/30 04:10:40;;;;;;;8.43;1.73;;;8.10;62.30;;;;;;2541131;54;21047;-78
2022/03/30 04:13:09;;;;;;;13.13;2.20;;;8.10;62.40;;;;;;2304433;58;21052;-77
2022/03/30 04:15:37;;;;;;;7.03;2.25;;;8.10;62.50;;;;;;2303569;58;21080;-78
2022/03/30 04:18:07;;;;;;;9.30;2.15;;;8.10;63.30;;;;;;2541603;54;21139;-81
2022/03/30 04:20:35;;;;;;;7.37;3.20;;;8.10;62.60;;;;;;2304263;58;21192;-77
2022/03/30 04:23:03;;;;;;;7.57;2.97;;;8.10;62.70;;;;;;2304341;58;21029;-78
2022/03/30 04:25:30;;;;;;;10.50;2.30;;;8.10;63.00;;;;;;2303786;58;21119;-78
2022/03/30 04:27:57;;;;;;;5.70;1.90;;;8.10;63.00;;;;;;2304077;58;21055;-77
2022/03/30 04:30:25;;;;;;;10.00;2.35;;;8.10;63.20;;;;;;2542286;54;21036;-77
2022/03/30 04:32:53;;;;;;;7.57;2.78;;;8.10;63.30;;;;;;2304387;58;21115;-77
2022/03/30 04:35:24;;;;;;;8.07;2.72;;;8.10;63.30;;;;;;2304427;58;21130;-78
2022/03/30 04:37:53;;;;;;;6.30;2.75;;;8.20;63.50;;;;;;2542668;54;21048;-76
2022/03/30 04:40:22;;;;;;;8.85;2.33;;;8.10;63.40;;;;;;2304545;58;21048;-78
2022/03/30 04:42:49;;;;;;;7.65;2.45;;;8.20;63.60;;;;;;2304683;58;21072;-78
2022/03/30 04:45:17;;;;;;;9.52;3.22;;;8.20;63.70;;;;;;2304273;58;21127;-81
2022/03/30 04:47:44;;;;;;;5.32;2.37;;;8.20;63.40;;;;;;2304205;58;21707;-77
2022/03/30 04:50:11;;;;;;;6.80;2.08;;;8.20;63.70;;;;;;2304467;58;21132;-78
2022/03/30 04:52:39;;;;;;;5.97;2.05;;;8.20;63.80;;;;;;2304445;58;21040;-78
2022/03/30 04:55:09;;;;;;;4.97;2.03;;;8.20;63.90;;;;;;2542247;54;21131;-78
2022/03/30 04:57:36;;;;;;;12.52;3.22;;;8.20;64.00;;;;;;2304417;58;21532;-78
2022/03/30 05:00:08;;;;;;;12.02;2.65;;;8.20;64.10;;;;;;2304358;58;21116;-78
2022/03/30 05:02:35;;;;;;;6.80;2.47;;;8.20;64.10;;;;;;2304129;58;21084;-77
2022/03/30 05:05:03;;;;;;;6.90;2.42;;;8.20;64.20;;;;;;2304276;58;21048;-78
2022/03/30 05:07:31;;;;;;;7.28;2.28;;;8.20;64.20;;;;;;2304211;58;21036;-77
2022/03/30 05:09:59;;;;;;;7.95;2.10;;;8.20;64.30;;;;;;2303700;58;21052;-80
2022/03/30 05:12:26;;;;;;;6.68;2.45;;;8.30;64.30;;;;;;2304265;58;21052;-78
2022/03/30 05:14:53;;;;;;;7.53;2.03;;;8.20;64.40;;;;;;2304070;58;21556;-78
2022/03/30 05:17:21;;;;;;;7.07;2.67;;;8.20;64.50;;;;;;2304328;58;21119;-79
2022/03/30 05:19:48;;;;;;;4.78;2.15;;;8.20;64.80;;;;;;2304233;58;21048;-79
2022/03/30 05:22:16;;;;;;;12.23;2.72;;;8.20;64.90;;;;;;2543421;54;21068;-79
2022/03/30 05:24:43;;;;;;;9.43;2.78;;;8.20;65.10;;;;;;2542439;54;21096;-78
2022/03/30 05:27:11;;;;;;;7.12;2.45;;;8.20;65.30;;;;;;2304457;58;21135;-78
2022/03/30 05:29:38;;;;;;;7.53;2.33;;;8.20;65.40;;;;;;2304526;58;21052;-78
2022/03/30 05:32:07;;;;;;;6.12;2.62;;;8.30;65.30;;;;;;2304528;58;21052;-78
2022/03/30 05:37:10;;;;;;;7.03;1.83;;;8.20;64.80;;;;;;2353384;57;22384;-74
2022/03/30 05:39:41;;;;;;;5.50;1.77;;;8.20;64.40;;;;;;2346455;57;21060;-74
2022/03/30 05:42:09;;;;;;;6.12;2.15;;;8.30;64.70;;;;;;2346259;57;21121;-74
2022/03/30 05:44:37;;;;;;;4.72;2.28;;;8.20;64.60;;;;;;2347989;56;21058;-74
2022/03/30 05:47:06;;;;;;;5.78;1.60;;;8.30;64.60;;;;;;2373670;56;21337;-75
2022/03/30 05:49:34;;;;;;;4.55;1.67;;;8.20;64.50;;;;;;2374311;56;21118;-75
2022/03/30 05:52:01;;;;;;;4.43;2.15;;;8.30;64.70;;;;;;2374014;56;21110;-74
2022/03/30 05:54:29;;;;;;;6.50;1.58;;;8.30;64.90;;;;;;2373805;56;21102;-74
2022/03/30 05:57:02;;;;;;;5.60;1.90;;;8.30;64.90;;;;;;2373902;56;21047;-75
2022/03/30 05:59:30;;;;;;;8.43;2.67;;;8.20;64.50;;;;;;2374481;56;21043;-74
2022/03/30 06:01:59;;;;;;;3.72;1.83;;;8.30;64.40;;;;;;2627167;52;21035;-74
2022/03/30 06:04:29;;;;;;;7.35;1.73;;;8.20;64.30;;;;;;2374327;56;21031;-75
2022/03/30 06:06:57;;;;;;;5.70;1.98;;;8.30;64.70;;;;;;2627291;52;21122;-75
2022/03/30 06:09:24;;;;;;;7.68;1.92;;;8.30;64.90;;;;;;2374177;56;21051;-75
2022/03/30 06:11:51;;;;;;;10.40;1.92;;;8.30;64.90;;;;;;2373670;56;22184;-74
2022/03/30 06:14:20;;;;;;;6.43;2.08;;;8.30;64.90;;;;;;2374023;56;21051;-75
2022/03/30 06:16:48;;;;;;;7.22;1.80;;;8.30;65.20;;;;;;2373584;56;21553;-75
2022/03/30 06:19:16;;;;;;;6.90;2.15;;;8.30;65.10;;;;;;2373979;56;21062;-75
2022/03/30 06:21:43;;;;;;;7.35;2.05;;;8.30;64.90;;;;;;2373877;56;21043;-75
2022/03/30 06:24:11;;;;;;;4.95;1.80;;;8.40;65.10;;;;;;2373820;56;21087;-75
2022/03/30 06:26:38;;;;;;;11.15;2.20;;;8.40;65.00;;;;;;2373565;56;21035;-75
2022/03/30 06:29:06;;;;;;;11.02;3.05;;;8.40;64.80;;;;;;2373676;56;21051;-75
2022/03/30 06:31:34;;;;;;;5.15;2.28;;;8.30;65.10;;;;;;2373774;56;21035;-75
2022/03/30 06:34:02;;;;;;;8.35;2.35;;;8.30;65.00;;;;;;2627570;52;21031;-75
2022/03/30 06:36:29;;;;;;;8.75;2.22;;;8.40;64.50;;;;;;2373619;56;21047;-74
2022/03/30 06:38:58;;;;;;;10.52;2.30;;;8.40;64.80;;;;;;2374135;56;21031;-75
2022/03/30 06:41:25;;;;;;;4.57;1.65;;;8.40;64.60;;;;;;2374121;56;21044;-75
2022/03/30 06:43:53;;;;;;;6.78;2.10;;;8.50;64.50;;;;;;2373651;56;21123;-75
2022/03/30 06:46:20;;;;;;;8.70;2.42;;;8.50;64.30;;;;;;2626739;52;21118;-74
2022/03/30 06:48:48;;;;;;;11.57;2.83;;;8.40;64.50;;;;;;2373251;56;21374;-75
2022/03/30 06:51:15;;;;;;;7.80;1.73;;;8.40;64.60;;;;;;2372955;56;21055;-74
2022/03/30 06:53:43;;;;;;;10.93;2.45;;;8.40;64.50;;;;;;2373147;56;21102;-75
2022/03/30 06:56:11;;;;;;;6.72;2.10;;;8.40;64.30;;;;;;2372579;56;21150;-75
2022/03/30 06:58:38;;;;;;;4.80;1.95;;;8.40;64.40;;;;;;2626508;52;21117;-74
2022/03/30 07:01:05;;;;;;;7.32;2.45;;;8.50;64.60;;;;;;2372224;56;21039;-74
2022/03/30 07:03:32;;;;;;;8.90;2.28;;;8.50;64.40;;;;;;2372481;56;21530;-75
2022/03/30 07:06:03;;;;;;;7.15;2.60;;;8.50;64.40;;;;;;2373106;56;21050;-75
2022/03/30 07:11:15;;;;;;;9.52;2.25;;;8.50;64.40;;;;;;2372338;56;21073;-75
2022/03/30 07:13:43;;;;;;;5.80;2.15;;;8.50;64.40;;;;;;2372585;56;21589;-75
2022/03/30 07:16:10;;;;;;;8.20;2.35;;;8.40;64.60;;;;;;2371878;56;21051;-74
2022/03/30 07:18:37;;;;;;;7.35;2.25;;;8.40;64.80;;;;;;2372488;56;21397;-74
2022/03/30 07:21:04;;;;;;;8.52;2.90;;;8.40;65.00;;;;;;2372621;56;21043;-74
2022/03/30 07:23:32;;;;;;;10.35;3.35;;;8.40;65.00;;;;;;2372084;56;21625;-74
2022/03/30 07:26:00;;;;;;;9.32;2.72;;;8.40;65.00;;;;;;2371582;56;21039;-74
2022/03/30 07:28:27;;;;;;;13.23;3.00;;;8.40;65.20;;;;;;2372758;56;21031;-75
2022/03/30 07:30:55;;;;;;;10.70;3.50;;;8.40;65.40;;;;;;2372552;56;21134;-75
2022/03/30 07:33:23;;;;;;;9.85;3.17;;;8.40;65.40;;;;;;2372912;56;21130;-74
2022/03/30 07:35:51;;;;;;;7.90;3.28;;;8.40;65.60;;;;;;2372254;56;21055;-75
2022/03/30 07:38:20;;;;;;;14.00;2.97;;;8.40;65.90;;;;;;2372766;56;21115;-74
2022/03/30 07:40:49;;;;;;;3.87;2.08;;;8.40;66.00;;;;;;2372880;56;21047;-74
2022/03/30 07:43:18;;;;;;;5.80;2.25;;;8.50;65.90;;;;;;2372356;56;21083;-74
2022/03/30 07:45:46;;;;;;;6.70;2.65;;;8.50;65.80;;;;;;2491442;54;21075;-75
2022/03/30 07:48:13;;;;;;;6.00;2.35;;;8.60;65.90;;;;;;2301496;58;21043;-76
2022/03/30 07:50:41;;;;;;;4.03;2.40;;;8.60;65.40;;;;;;2301859;58;21604;-78
2022/03/30 07:53:08;;;;;;;7.93;2.75;;;8.70;64.80;;;;;;2301593;58;21062;-78
2022/03/30 07:55:38;;;;;;;9.57;2.15;;;8.70;64.80;;;;;;2301486;58;21078;-79
2022/03/30 07:58:06;;;;;;;6.87;2.60;;;8.60;65.10;;;;;;2301852;58;21118;-79
2022/03/30 08:00:34;;;;;;;7.82;2.85;;;8.70;66.20;;;;;;2538753;54;21113;-78
2022/03/30 08:03:03;;;;;;;7.47;2.40;;;8.70;65.40;;;;;;2538984;54;21056;-78
2022/03/30 08:05:31;;;;;;;5.53;2.33;;;8.70;65.50;;;;;;2538682;54;21107;-78
2022/03/30 08:07:59;;;;;;;7.03;3.53;;;8.80;65.80;;;;;;2301179;58;21046;-79
2022/03/30 08:10:28;;;;;;;8.40;2.33;;;8.80;65.70;;;;;;2539637;54;21058;-78
2022/03/30 08:12:55;;;;;;;7.65;3.15;;;8.80;65.60;;;;;;2302559;58;21142;-77
2022/03/30 08:15:23;;;;;;;3.85;2.30;;;8.90;65.50;;;;;;2302272;58;21074;-79
2022/03/30 08:17:51;;;;;;;4.87;2.12;;;8.90;65.50;;;;;;2302412;58;21113;-79
2022/03/30 08:23:05;;;;;;;5.95;2.85;;;8.90;65.50;;;;;;2301653;58;21077;-77
2022/03/30 08:25:33;;;;;;;4.57;2.15;;;8.90;65.60;;;;;;2301442;58;21141;-77
2022/03/30 08:28:00;;;;;;;7.68;2.67;;;8.90;65.60;;;;;;2300835;58;21138;-76
2022/03/30 08:30:28;;;;;;;8.82;2.50;;;8.90;65.50;;;;;;2539070;54;21138;-77
2022/03/30 08:32:57;;;;;;;4.78;2.00;;;8.90;65.10;;;;;;2301805;58;21067;-78
2022/03/30 08:35:25;;;;;;;6.85;2.28;;;9.00;65.10;;;;;;2538429;54;21575;-78
2022/03/30 08:37:53;;;;;;;6.45;2.15;;;9.00;65.10;;;;;;2301232;58;21154;-75
2022/03/30 08:40:20;;;;;;;6.75;2.20;;;8.90;64.70;;;;;;2301867;58;21186;-77
2022/03/30 08:42:48;;;;;;;3.65;1.80;;;9.00;64.80;;;;;;2300764;58;21090;-77
2022/03/30 08:45:16;;;;;;;4.55;1.95;;;9.00;64.70;;;;;;2539082;54;21090;-77
2022/03/30 08:47:44;;;;;;;5.80;1.92;;;9.00;64.70;;;;;;2539192;54;21601;-77
2022/03/30 08:50:11;;;;;;;3.70;2.03;;;9.00;64.60;;;;;;2301393;58;21074;-78
2022/03/30 08:52:39;;;;;;;2.87;2.03;;;9.00;64.20;;;;;;2301608;58;21185;-77
2022/03/30 08:55:07;;;;;;;5.47;2.17;;;9.00;63.80;;;;;;2300816;58;21066;-76
2022/03/30 08:57:34;;;;;;;6.53;2.35;;;9.10;63.50;;;;;;2538622;54;21587;-77
2022/03/30 09:02:42;;;;;;;5.80;1.98;;;9.20;63.60;;;;;;2355548;57;22137;-74
2022/03/30 09:05:20;;;;;;;3.22;2.00;;;9.30;63.70;;;;;;2355197;56;21102;-79
2022/03/30 09:07:49;;;;;;;6.78;2.25;;;9.30;63.40;;;;;;2629959;52;21517;-78
2022/03/30 09:10:18;;;;;;;3.28;2.00;;;9.30;63.00;;;;;;2629449;52;21091;-78
2022/03/30 09:12:47;;;;;;;3.87;2.05;;;9.30;62.70;;;;;;2630067;52;21063;-78
2022/03/30 09:15:15;;;;;;;5.30;2.40;;;9.30;62.70;;;;;;2629430;52;21047;-78
2022/03/30 09:17:44;;;;;;;5.05;2.17;;;9.30;62.70;;;;;;2629990;52;21074;-79
2022/03/30 09:20:17;;;;;;;3.65;2.17;;;9.30;62.90;;;;;;2629931;52;21106;-79
2022/03/30 09:22:47;;;;;;;4.75;2.17;;;9.40;62.80;;;;;;2629518;52;21105;-78
2022/03/30 09:25:15;;;;;;;9.25;2.20;;;9.40;62.60;;;;;;2375029;56;21058;-75
2022/03/30 09:27:43;;;;;;;3.50;2.50;;;9.40;62.10;;;;;;2376075;56;21055;-76
2022/03/30 09:30:15;;;;;;;4.95;1.85;;;9.30;62.00;;;;;;2629483;52;21035;-79
2022/03/30 09:32:44;;;;;;;5.30;1.90;;;9.30;62.30;;;;;;2375757;56;22254;-78
2022/03/30 09:35:24;;;;;;;7.25;2.05;;;9.40;61.90;;;;;;2375753;56;21057;-78
2022/03/30 09:38:10;;;;;;;3.87;2.20;;;9.40;61.50;;;;;;2375790;56;21529;-77
2022/03/30 09:40:44;;;;;;;7.10;2.25;;;9.50;61.90;;;;;;2375896;56;21083;-79
2022/03/30 09:43:22;;;;;;;;;;;9.50;61.70;;;;;;2632849;52;21035;-75
2022/03/30 09:46:02;;;;;;;3.20;1.60;;;9.60;61.50;;;;;;2373518;56;20081;-77
2022/03/30 09:48:32;;;;;;;9.77;2.00;;;9.50;61.30;;;;;;2375221;56;21071;-76
2022/03/30 09:51:02;;;;;;;4.22;1.50;;;9.50;60.80;;;;;;2375188;56;21043;-77
2022/03/30 09:53:31;;;;;;;2.12;1.30;;;9.50;60.80;;;;;;2375468;56;21154;-76
2022/03/30 09:56:01;;;;;;;3.95;1.65;;;9.60;61.20;;;;;;2628157;52;21098;-77
2022/03/30 09:58:30;;;;;;;2.75;1.50;;;9.60;60.80;;;;;;2628790;52;21105;-77
2022/03/30 10:01:09;;;;;;;5.12;1.98;;;9.60;60.80;;;;;;2374938;56;21170;-78
2022/03/30 10:03:42;;;;;;;5.75;2.10;;;9.60;60.80;;;;;;2374678;56;21106;-75
2022/03/30 10:06:10;;;;;;;3.20;1.65;;;9.70;60.90;;;;;;2374538;56;21039;-77
2022/03/30 10:08:40;;;;;;;4.12;1.40;;;9.70;60.50;;;;;;2628048;52;21012;-78
2022/03/30 10:11:12;;;;;;;4.28;1.67;;;9.80;60.30;;;;;;2628845;52;21569;-77
2022/03/30 10:13:40;;;;;;;5.10;2.15;;;9.80;59.70;;;;;;2373052;56;21134;-74
2022/03/30 10:16:08;;;;;;;2.92;1.80;;;9.80;59.50;;;;;;2373410;56;21130;-77
2022/03/30 10:18:35;;;;;;;3.22;1.80;;;9.80;59.60;;;;;;2373995;56;21054;-76
2022/03/30 10:21:22;;;;;;;5.32;1.70;;;9.80;59.40;;;;;;2374250;56;21094;-77
2022/03/30 10:24:16;;;;;;;4.43;1.60;;;9.90;59.20;;;;;;2374162;56;21676;-75
2022/03/30 10:26:52;;;;;;;3.67;1.55;;;9.80;59.30;;;;;;2374238;56;21063;-77
2022/03/30 10:29:23;;;;;;;5.75;1.70;;;9.80;59.40;;;;;;2373951;56;21067;-75
2022/03/30 10:32:09;;;;;;;3.72;1.70;;;9.80;60.60;;;;;;2373879;56;21115;-75
2022/03/30 10:34:47;;;;;;;4.65;1.50;;;9.90;59.70;;;;;;2374123;56;21055;-75
2022/03/30 10:37:22;;;;;;;2.60;1.90;;;9.90;59.60;;;;;;2373980;56;21114;-77
2022/03/30 10:40:04;;;;;;;3.45;2.10;;;9.90;59.30;;;;;;2374116;56;21050;-77
2022/03/30 10:42:58;;;;;;;6.00;1.70;;;9.90;59.40;;;;;;2628553;52;21166;-78
2022/03/30 10:45:30;;;;;;;3.87;1.75;;;9.90;59.30;;;;;;2372725;56;21177;-78
2022/03/30 10:48:16;;;;;;;3.87;1.87;;;9.90;59.00;;;;;;2628557;52;21090;-76
2022/03/30 10:50:47;;;;;;;4.40;1.50;;;9.90;59.20;;;;;;2373437;56;21034;-77
2022/03/30 10:53:38;;;;;;;3.08;1.35;;;9.90;59.40;;;;;;2373813;56;21094;-78
2022/03/30 10:56:34;;;;;;;3.30;1.55;;;10.00;59.70;;;;;;2373740;56;21174;-77
2022/03/30 10:59:09;;;;;;;3.80;1.77;;;10.00;60.60;;;;;;2373340;56;21035;-77
2022/03/30 11:01:39;;;;;;;3.30;1.35;;;10.00;59.90;;;;;;2626868;52;21107;-78
2022/03/30 11:04:17;;;;;;;3.22;1.70;;;10.10;60.00;;;;;;2373388;56;21027;-76
2022/03/30 11:06:46;;;;;;;2.47;1.40;;;10.10;60.00;;;;;;2625663;52;21051;-77
2022/03/30 11:09:25;;;;;;;4.65;1.52;;;10.20;59.40;;;;;;2625026;52;21039;-77
2022/03/30 11:12:00;;;;;;;5.37;1.58;;;10.20;59.60;;;;;;2625175;52;21071;-77
2022/03/30 11:14:31;;;;;;;2.42;1.55;;;10.20;59.30;;;;;;2372800;56;21040;-78
2022/03/30 11:17:01;;;;;;;6.57;2.00;;;10.20;59.10;;;;;;2625123;52;21047;-76
2022/03/30 11:20:01;;;;;;;2.22;1.80;;;10.30;59.50;;;;;;2626764;52;21039;-78
2022/03/30 11:22:32;;;;;;;3.50;1.98;;;10.30;58.80;;;;;;2373444;56;21051;-77
2022/03/30 11:25:08;;;;;;;2.60;1.62;;;10.40;58.40;;;;;;2626052;52;21125;-76
2022/03/30 11:27:36;;;;;;;4.22;1.80;;;10.40;58.10;;;;;;2373626;56;21129;-78
2022/03/30 11:33:01;;;;;;;3.70;2.30;;;10.50;57.40;;;;;;2353206;57;22623;-76
2022/03/30 11:35:32;;;;;;;3.95;2.00;;;10.60;56.70;;;;;;2357947;56;21054;-77
2022/03/30 11:38:09;;;;;;;2.65;1.80;;;10.60;56.80;;;;;;2629698;52;21102;-79
2022/03/30 11:40:40;;;;;;;5.47;1.70;;;10.60;56.90;;;;;;2375822;56;21118;-78
2022/03/30 11:43:09;;;;;;;5.40;2.12;;;10.70;56.90;;;;;;2375485;56;21046;-79
2022/03/30 11:45:36;;;;;;;4.32;1.98;;;10.70;56.60;;;;;;2374891;56;21381;-79
2022/03/30 11:48:06;;;;;;;3.28;1.60;;;10.70;56.10;;;;;;2375364;56;21086;-80
2022/03/30 11:50:36;;;;;;;4.05;1.48;;;10.80;55.40;;;;;;2375310;56;21545;-79
2022/03/30 11:53:06;;;;;;;4.37;1.58;;;10.80;55.70;;;;;;2375636;56;21046;-79
2022/03/30 11:55:35;;;;;;;6.62;1.60;;;10.90;55.90;;;;;;2375001;56;21050;-78
2022/03/30 11:58:05;;;;;;;4.97;1.37;;;10.80;56.10;;;;;;2375161;56;21066;-79
2022/03/30 12:00:33;;;;;;;2.28;1.30;;;10.80;55.60;;;;;;2629019;52;21046;-79
2022/03/30 12:03:02;;;;;;;2.40;1.50;;;10.80;55.90;;;;;;2375228;56;21046;-79
2022/03/30 12:05:30;;;;;;;5.07;2.17;;;10.90;55.40;;;;;;2374239;56;21042;-78
2022/03/30 12:07:58;;;;;;;5.70;2.10;;;10.90;56.00;;;;;;2374166;56;21035;-79
2022/03/30 12:10:31;;;;;;;3.95;1.80;;;10.90;54.80;;;;;;2376097;56;21573;-79
2022/03/30 12:12:59;;;;;;;6.50;1.70;;;11.00;54.50;;;;;;2629920;52;21577;-77
2022/03/30 12:15:27;;;;;;;5.90;1.65;;;11.00;54.20;;;;;;2375636;56;21070;-79
2022/03/30 12:17:56;;;;;;;3.17;1.40;;;11.00;54.30;;;;;;2376249;56;21050;-79
2022/03/30 12:20:27;;;;;;;2.83;1.60;;;11.00;54.60;;;;;;2374829;56;21055;-79
2022/03/30 12:22:59;;;;;;;3.42;1.25;;;11.00;55.40;;;;;;2375480;56;21107;-79
2022/03/30 12:25:33;;;;;;;4.03;1.92;;;11.00;55.10;;;;;;2375281;56;21122;-79
2022/03/30 12:28:01;;;;;;;3.53;1.87;;;11.00;54.90;;;;;;2629204;52;21118;-79
2022/03/30 12:30:32;;;;;;;2.10;1.20;;;11.10;54.40;;;;;;2629301;52;21039;-79
2022/03/30 12:33:00;;;;;;;4.18;1.40;;;11.10;54.10;;;;;;2628611;52;21106;-79
2022/03/30 12:35:33;;;;;;;2.22;1.55;;;11.10;54.00;;;;;;2374687;56;21177;-77
2022/03/30 12:38:08;;;;;;;3.50;1.55;;;11.10;54.00;;;;;;2629401;52;21058;-79
2022/03/30 12:40:37;;;;;;;1.95;1.65;;;11.10;54.90;;;;;;2628403;52;21039;-77
2022/03/30 12:43:05;;;;;;;3.35;1.70;;;11.20;55.30;;;;;;2374723;56;21051;-77
2022/03/30 12:45:32;;;;;;;3.40;1.20;;;11.20;55.10;;;;;;2627321;52;21086;-78
2022/03/30 12:48:02;;;;;;;5.82;1.55;;;11.20;54.80;;;;;;2627872;52;21035;-79
2022/03/30 12:50:33;;;;;;;3.12;1.58;;;11.30;54.30;;;;;;2627299;52;21129;-78
2022/03/30 12:53:08;;;;;;;2.35;1.40;;;11.30;53.80;;;;;;2374412;56;21110;-79
2022/03/30 12:55:37;;;;;;;2.62;1.42;;;11.30;54.00;;;;;;2627512;52;21110;-79
2022/03/30 12:58:11;;;;;;;4.30;1.77;;;11.30;54.30;;;;;;2627686;52;21031;-77
2022/03/30 13:00:38;;;;;;;;;;;11.40;54.20;;;;;;2378587;56;21122;-79
2022/03/30 13:03:08;;;;;;;2.72;1.58;;;11.50;54.30;;;;;;2627667;52;20081;-78
2022/03/30 13:05:36;;;;;;;2.58;1.50;;;11.50;54.00;;;;;;2627270;52;21348;-77
2022/03/30 13:08:14;;;;;;;1.73;1.27;;;11.40;53.40;;;;;;2627308;52;21091;-79
2022/03/30 13:10:51;;;;;;;5.30;1.75;;;11.40;53.00;;;;;;2373840;56;21094;-77
2022/03/30 13:13:20;;;;;;;3.83;1.50;;;11.40;53.80;;;;;;2374301;56;21051;-76
2022/03/30 13:15:48;;;;;;;6.93;1.90;;;11.40;53.30;;;;;;2373917;56;21054;-77
2022/03/30 13:18:19;;;;;;;2.53;1.67;;;11.40;53.60;;;;;;2374297;56;21170;-79
2022/03/30 13:20:59;;;;;;;1.77;1.35;;;11.30;53.80;;;;;;2627769;52;21043;-78
2022/03/30 13:23:38;;;;;;;2.60;1.50;;;11.40;54.00;;;;;;2627721;52;21035;-77